Main page
METAR-TAF:

METAR-TAF

Airports :

Campbeltown Airport

Campbeltown, Scotland

latitude: 55-26-14N, longitude: 005-41-11W, elevation: 13 m

Current weather observation

The report was made 3 hours and 59 minutes ago, at 17:20 UTC
Wind 12 kt from the East/Southeast
Temperature 11°C
Humidity 94%
Pressure 1016 hPa
Visibility 10 km or more
Few clouds at a height of 1200 ft
Broken clouds at a height of 2800 ft

METAR: EGEC 201720Z 11012KT 9999 FEW012 BKN028 11/10 Q1016

Time: 22:19 (21:19 UTC)


TAF: missing

Weather observations and forecasts of more than 4000 airports (METAR and TAF reports).

The available stations are represented by yellow and red dots on the map.

Hover mouse over dot to see the name of the station.

Then click to see weather observations and forecasts.

To change the map : click on the green buttons with a black cross to zoom in, on the green button with a dash to zoom out, or on the green arrows for adjacent maps.


METAR-TAF: